sensor_id;sensor_type;location;lat;lon;timestamp;P1;durP1;ratioP1;P2;durP2;ratioP2
70814;SDS011;58428;49.478;10.986;2022-11-15T00:00:57;10.55;;;6.13;;
70814;SDS011;58428;49.478;10.986;2022-11-15T00:03:23;10.65;;;6.70;;
70814;SDS011;58428;49.478;10.986;2022-11-15T00:05:50;9.90;;;6.20;;
70814;SDS011;58428;49.478;10.986;2022-11-15T00:08:18;11.80;;;6.75;;
70814;SDS011;58428;49.478;10.986;2022-11-15T00:10:55;11.05;;;6.70;;
70814;SDS011;58428;49.478;10.986;2022-11-15T00:13:22;12.75;;;6.55;;
70814;SDS011;58428;49.478;10.986;2022-11-15T00:15:48;11.80;;;6.90;;
70814;SDS011;58428;49.478;10.986;2022-11-15T00:18:14;11.65;;;6.28;;
70814;SDS011;58428;49.478;10.986;2022-11-15T00:20:40;11.20;;;6.50;;
70814;SDS011;58428;49.478;10.986;2022-11-15T00:23:06;10.30;;;6.00;;
70814;SDS011;58428;49.478;10.986;2022-11-15T00:25:31;11.68;;;6.55;;
70814;SDS011;58428;49.478;10.986;2022-11-15T00:27:58;12.93;;;6.32;;
70814;SDS011;58428;49.478;10.986;2022-11-15T00:30:24;11.82;;;6.20;;
70814;SDS011;58428;49.478;10.986;2022-11-15T00:32:50;12.05;;;6.70;;
70814;SDS011;58428;49.478;10.986;2022-11-15T00:35:15;11.35;;;6.88;;
70814;SDS011;58428;49.478;10.986;2022-11-15T00:37:41;10.88;;;6.30;;
70814;SDS011;58428;49.478;10.986;2022-11-15T00:40:08;12.45;;;6.65;;
70814;SDS011;58428;49.478;10.986;2022-11-15T00:42:35;11.77;;;6.80;;
70814;SDS011;58428;49.478;10.986;2022-11-15T00:45:01;11.20;;;6.20;;
70814;SDS011;58428;49.478;10.986;2022-11-15T00:47:27;10.50;;;5.85;;
70814;SDS011;58428;49.478;10.986;2022-11-15T00:49:53;10.75;;;6.35;;
70814;SDS011;58428;49.478;10.986;2022-11-15T00:52:21;13.77;;;6.43;;
70814;SDS011;58428;49.478;10.986;2022-11-15T00:54:47;10.85;;;5.85;;
70814;SDS011;58428;49.478;10.986;2022-11-15T00:57:13;12.25;;;6.70;;
70814;SDS011;58428;49.478;10.986;2022-11-15T00:59:39;11.48;;;6.60;;
70814;SDS011;58428;49.478;10.986;2022-11-15T01:02:04;12.27;;;6.53;;
70814;SDS011;58428;49.478;10.986;2022-11-15T01:04:34;11.00;;;6.43;;
70814;SDS011;58428;49.478;10.986;2022-11-15T01:07:01;12.57;;;6.70;;
70814;SDS011;58428;49.478;10.986;2022-11-15T01:09:26;10.52;;;5.82;;
70814;SDS011;58428;49.478;10.986;2022-11-15T01:11:52;12.82;;;6.75;;
70814;SDS011;58428;49.478;10.986;2022-11-15T01:14:17;10.20;;;6.15;;
70814;SDS011;58428;49.478;10.986;2022-11-15T01:16:42;10.63;;;6.07;;
70814;SDS011;58428;49.478;10.986;2022-11-15T01:19:11;13.43;;;6.90;;
70814;SDS011;58428;49.478;10.986;2022-11-15T01:21:37;11.45;;;7.43;;
70814;SDS011;58428;49.478;10.986;2022-11-15T01:24:02;11.37;;;6.10;;
70814;SDS011;58428;49.478;10.986;2022-11-15T01:26:27;11.13;;;6.18;;
70814;SDS011;58428;49.478;10.986;2022-11-15T01:28:56;12.77;;;6.57;;
70814;SDS011;58428;49.478;10.986;2022-11-15T01:31:23;10.98;;;6.05;;
70814;SDS011;58428;49.478;10.986;2022-11-15T01:33:49;11.90;;;6.72;;
70814;SDS011;58428;49.478;10.986;2022-11-15T01:36:19;10.77;;;6.82;;
70814;SDS011;58428;49.478;10.986;2022-11-15T01:38:56;12.68;;;6.95;;
70814;SDS011;58428;49.478;10.986;2022-11-15T01:41:28;13.00;;;6.75;;
70814;SDS011;58428;49.478;10.986;2022-11-15T01:43:57;12.05;;;6.68;;
70814;SDS011;58428;49.478;10.986;2022-11-15T01:46:46;12.43;;;6.90;;
70814;SDS011;58428;49.478;10.986;2022-11-15T01:49:14;13.02;;;6.88;;
70814;SDS011;58428;49.478;10.986;2022-11-15T01:51:44;11.18;;;6.65;;
70814;SDS011;58428;49.478;10.986;2022-11-15T01:54:12;13.02;;;6.50;;
70814;SDS011;58428;49.478;10.986;2022-11-15T01:56:48;10.73;;;6.47;;
70814;SDS011;58428;49.478;10.986;2022-11-15T01:59:17;12.40;;;6.65;;
70814;SDS011;58428;49.478;10.986;2022-11-15T02:01:43;12.63;;;6.72;;
70814;SDS011;58428;49.478;10.986;2022-11-15T02:04:28;11.57;;;6.80;;
70814;SDS011;58428;49.478;10.986;2022-11-15T02:06:57;12.20;;;6.78;;
70814;SDS011;58428;49.478;10.986;2022-11-15T02:09:25;13.07;;;6.50;;
70814;SDS011;58428;49.478;10.986;2022-11-15T02:11:50;12.43;;;6.70;;
70814;SDS011;58428;49.478;10.986;2022-11-15T02:16:59;12.93;;;6.10;;
70814;SDS011;58428;49.478;10.986;2022-11-15T02:20:03;11.65;;;6.18;;
70814;SDS011;58428;49.478;10.986;2022-11-15T02:30:41;12.85;;;7.20;;
70814;SDS011;58428;49.478;10.986;2022-11-15T02:33:26;13.07;;;6.72;;
70814;SDS011;58428;49.478;10.986;2022-11-15T02:36:00;13.02;;;6.45;;
70814;SDS011;58428;49.478;10.986;2022-11-15T02:41:15;12.50;;;6.65;;
70814;SDS011;58428;49.478;10.986;2022-11-15T02:43:56;10.88;;;6.35;;
70814;SDS011;58428;49.478;10.986;2022-11-15T02:49:33;11.40;;;6.35;;
70814;SDS011;58428;49.478;10.986;2022-11-15T02:52:02;14.10;;;7.28;;
70814;SDS011;58428;49.478;10.986;2022-11-15T02:54:29;13.18;;;6.53;;
70814;SDS011;58428;49.478;10.986;2022-11-15T02:57:05;12.23;;;6.60;;
70814;SDS011;58428;49.478;10.986;2022-11-15T03:08:24;12.70;;;7.22;;
70814;SDS011;58428;49.478;10.986;2022-11-15T03:11:13;12.07;;;6.65;;
70814;SDS011;58428;49.478;10.986;2022-11-15T03:13:57;12.93;;;7.55;;
70814;SDS011;58428;49.478;10.986;2022-11-15T03:16:44;12.38;;;7.22;;
70814;SDS011;58428;49.478;10.986;2022-11-15T03:22:30;13.65;;;6.75;;
70814;SDS011;58428;49.478;10.986;2022-11-15T03:25:00;14.90;;;7.20;;
70814;SDS011;58428;49.478;10.986;2022-11-15T03:27:33;11.27;;;6.32;;
70814;SDS011;58428;49.478;10.986;2022-11-15T03:30:04;13.45;;;7.22;;
70814;SDS011;58428;49.478;10.986;2022-11-15T03:32:32;12.05;;;6.82;;
70814;SDS011;58428;49.478;10.986;2022-11-15T03:37:37;14.00;;;7.43;;
70814;SDS011;58428;49.478;10.986;2022-11-15T03:40:24;11.95;;;6.60;;
70814;SDS011;58428;49.478;10.986;2022-11-15T03:45:41;11.45;;;6.20;;
70814;SDS011;58428;49.478;10.986;2022-11-15T03:48:21;13.30;;;7.60;;
70814;SDS011;58428;49.478;10.986;2022-11-15T03:50:51;12.15;;;6.70;;
70814;SDS011;58428;49.478;10.986;2022-11-15T03:53:18;11.40;;;6.72;;
70814;SDS011;58428;49.478;10.986;2022-11-15T03:55:43;11.38;;;6.60;;
70814;SDS011;58428;49.478;10.986;2022-11-15T03:58:09;13.52;;;6.85;;
70814;SDS011;58428;49.478;10.986;2022-11-15T04:03:02;13.20;;;7.38;;
70814;SDS011;58428;49.478;10.986;2022-11-15T04:05:27;12.13;;;7.72;;
70814;SDS011;58428;49.478;10.986;2022-11-15T04:07:55;13.60;;;7.10;;
70814;SDS011;58428;49.478;10.986;2022-11-15T04:10:22;11.18;;;6.53;;
70814;SDS011;58428;49.478;10.986;2022-11-15T04:12:48;11.00;;;6.70;;
70814;SDS011;58428;49.478;10.986;2022-11-15T04:15:18;11.43;;;6.63;;
70814;SDS011;58428;49.478;10.986;2022-11-15T04:17:47;14.38;;;7.07;;
70814;SDS011;58428;49.478;10.986;2022-11-15T04:23:24;12.73;;;7.10;;
70814;SDS011;58428;49.478;10.986;2022-11-15T04:26:12;12.45;;;6.43;;
70814;SDS011;58428;49.478;10.986;2022-11-15T04:28:44;12.57;;;7.32;;
70814;SDS011;58428;49.478;10.986;2022-11-15T04:31:29;13.60;;;6.70;;
70814;SDS011;58428;49.478;10.986;2022-11-15T04:33:58;12.38;;;6.68;;
70814;SDS011;58428;49.478;10.986;2022-11-15T04:36:25;12.32;;;6.65;;
70814;SDS011;58428;49.478;10.986;2022-11-15T04:39:09;11.68;;;6.88;;
70814;SDS011;58428;49.478;10.986;2022-11-15T04:41:34;12.07;;;6.53;;
70814;SDS011;58428;49.478;10.986;2022-11-15T04:44:00;13.05;;;7.32;;
70814;SDS011;58428;49.478;10.986;2022-11-15T04:46:25;12.20;;;7.00;;
70814;SDS011;58428;49.478;10.986;2022-11-15T04:48:52;12.25;;;7.28;;
70814;SDS011;58428;49.478;10.986;2022-11-15T04:51:19;11.48;;;6.57;;
70814;SDS011;58428;49.478;10.986;2022-11-15T04:53:45;11.23;;;7.13;;
70814;SDS011;58428;49.478;10.986;2022-11-15T04:56:11;13.73;;;7.22;;
70814;SDS011;58428;49.478;10.986;2022-11-15T04:58:36;12.60;;;6.68;;
70814;SDS011;58428;49.478;10.986;2022-11-15T05:01:11;12.45;;;6.32;;
70814;SDS011;58428;49.478;10.986;2022-11-15T05:03:39;11.73;;;6.15;;
70814;SDS011;58428;49.478;10.986;2022-11-15T05:06:23;13.45;;;7.10;;
70814;SDS011;58428;49.478;10.986;2022-11-15T05:08:49;15.02;;;6.90;;
70814;SDS011;58428;49.478;10.986;2022-11-15T05:11:14;12.52;;;6.88;;
70814;SDS011;58428;49.478;10.986;2022-11-15T05:13:39;13.25;;;6.90;;
70814;SDS011;58428;49.478;10.986;2022-11-15T05:16:06;13.07;;;6.88;;
70814;SDS011;58428;49.478;10.986;2022-11-15T05:18:33;12.70;;;7.18;;
70814;SDS011;58428;49.478;10.986;2022-11-15T05:21:10;13.52;;;7.30;;
70814;SDS011;58428;49.478;10.986;2022-11-15T05:23:38;13.05;;;7.22;;
70814;SDS011;58428;49.478;10.986;2022-11-15T05:26:06;11.65;;;6.30;;
70814;SDS011;58428;49.478;10.986;2022-11-15T05:28:32;10.57;;;6.30;;
70814;SDS011;58428;49.478;10.986;2022-11-15T05:31:05;12.27;;;6.70;;
70814;SDS011;58428;49.478;10.986;2022-11-15T05:33:35;12.45;;;7.03;;
70814;SDS011;58428;49.478;10.986;2022-11-15T05:36:11;14.07;;;7.70;;
70814;SDS011;58428;49.478;10.986;2022-11-15T05:38:42;16.45;;;8.55;;
70814;SDS011;58428;49.478;10.986;2022-11-15T05:43:36;12.95;;;7.63;;
70814;SDS011;58428;49.478;10.986;2022-11-15T05:46:04;15.90;;;8.57;;
70814;SDS011;58428;49.478;10.986;2022-11-15T05:48:30;14.20;;;7.50;;
70814;SDS011;58428;49.478;10.986;2022-11-15T05:50:57;15.23;;;7.88;;
70814;SDS011;58428;49.478;10.986;2022-11-15T05:53:23;12.55;;;6.97;;
70814;SDS011;58428;49.478;10.986;2022-11-15T05:55:51;13.52;;;6.80;;
70814;SDS011;58428;49.478;10.986;2022-11-15T05:58:17;13.23;;;6.60;;
70814;SDS011;58428;49.478;10.986;2022-11-15T06:00:45;14.68;;;7.40;;
70814;SDS011;58428;49.478;10.986;2022-11-15T06:03:11;16.27;;;9.10;;
70814;SDS011;58428;49.478;10.986;2022-11-15T06:05:36;19.20;;;8.75;;
70814;SDS011;58428;49.478;10.986;2022-11-15T06:08:02;19.83;;;10.02;;
70814;SDS011;58428;49.478;10.986;2022-11-15T06:10:28;14.52;;;7.60;;
70814;SDS011;58428;49.478;10.986;2022-11-15T06:12:58;13.25;;;8.75;;
70814;SDS011;58428;49.478;10.986;2022-11-15T06:15:31;12.30;;;7.53;;
70814;SDS011;58428;49.478;10.986;2022-11-15T06:17:58;16.35;;;8.75;;
70814;SDS011;58428;49.478;10.986;2022-11-15T06:20:25;14.82;;;8.15;;
70814;SDS011;58428;49.478;10.986;2022-11-15T06:22:56;14.50;;;7.40;;
70814;SDS011;58428;49.478;10.986;2022-11-15T06:25:25;12.75;;;6.45;;
70814;SDS011;58428;49.478;10.986;2022-11-15T06:27:56;13.48;;;8.23;;
70814;SDS011;58428;49.478;10.986;2022-11-15T06:33:04;20.17;;;8.45;;
70814;SDS011;58428;49.478;10.986;2022-11-15T06:35:32;15.43;;;7.82;;
70814;SDS011;58428;49.478;10.986;2022-11-15T06:38:03;14.60;;;7.18;;
70814;SDS011;58428;49.478;10.986;2022-11-15T06:40:32;14.25;;;6.97;;
70814;SDS011;58428;49.478;10.986;2022-11-15T06:43:03;17.02;;;7.43;;
70814;SDS011;58428;49.478;10.986;2022-11-15T06:45:30;13.38;;;7.07;;
70814;SDS011;58428;49.478;10.986;2022-11-15T06:47:56;14.10;;;7.10;;
70814;SDS011;58428;49.478;10.986;2022-11-15T06:50:23;17.33;;;7.30;;
70814;SDS011;58428;49.478;10.986;2022-11-15T06:52:49;14.20;;;7.28;;
70814;SDS011;58428;49.478;10.986;2022-11-15T06:55:15;14.85;;;6.72;;
70814;SDS011;58428;49.478;10.986;2022-11-15T06:57:51;13.25;;;6.82;;
70814;SDS011;58428;49.478;10.986;2022-11-15T07:00:18;16.00;;;7.55;;
70814;SDS011;58428;49.478;10.986;2022-11-15T07:02:47;14.63;;;7.60;;
70814;SDS011;58428;49.478;10.986;2022-11-15T07:05:12;14.88;;;7.55;;
70814;SDS011;58428;49.478;10.986;2022-11-15T07:07:40;15.18;;;8.07;;
70814;SDS011;58428;49.478;10.986;2022-11-15T07:10:05;14.68;;;7.25;;
70814;SDS011;58428;49.478;10.986;2022-11-15T07:12:33;13.93;;;7.53;;
70814;SDS011;58428;49.478;10.986;2022-11-15T07:15:00;14.07;;;7.88;;
70814;SDS011;58428;49.478;10.986;2022-11-15T07:17:27;15.85;;;7.35;;
70814;SDS011;58428;49.478;10.986;2022-11-15T07:19:52;14.55;;;7.63;;
70814;SDS011;58428;49.478;10.986;2022-11-15T07:22:18;24.67;;;9.95;;
70814;SDS011;58428;49.478;10.986;2022-11-15T07:24:45;17.90;;;9.07;;
70814;SDS011;58428;49.478;10.986;2022-11-15T07:27:11;12.82;;;7.15;;
70814;SDS011;58428;49.478;10.986;2022-11-15T07:29:37;16.40;;;8.32;;
70814;SDS011;58428;49.478;10.986;2022-11-15T07:32:03;16.30;;;8.25;;
70814;SDS011;58428;49.478;10.986;2022-11-15T07:34:28;14.82;;;7.55;;
70814;SDS011;58428;49.478;10.986;2022-11-15T07:36:54;13.52;;;7.43;;
70814;SDS011;58428;49.478;10.986;2022-11-15T07:39:20;13.50;;;7.22;;
70814;SDS011;58428;49.478;10.986;2022-11-15T07:41:47;12.93;;;6.97;;
70814;SDS011;58428;49.478;10.986;2022-11-15T07:44:14;12.45;;;7.53;;
70814;SDS011;58428;49.478;10.986;2022-11-15T07:46:41;15.10;;;7.47;;
70814;SDS011;58428;49.478;10.986;2022-11-15T07:51:35;12.02;;;6.47;;
70814;SDS011;58428;49.478;10.986;2022-11-15T07:54:02;13.25;;;6.90;;
70814;SDS011;58428;49.478;10.986;2022-11-15T07:56:29;11.48;;;6.45;;
70814;SDS011;58428;49.478;10.986;2022-11-15T07:58:54;13.57;;;7.18;;
70814;SDS011;58428;49.478;10.986;2022-11-15T08:01:19;16.33;;;7.80;;
70814;SDS011;58428;49.478;10.986;2022-11-15T08:03:46;13.07;;;7.18;;
70814;SDS011;58428;49.478;10.986;2022-11-15T08:06:13;10.98;;;6.80;;
70814;SDS011;58428;49.478;10.986;2022-11-15T08:08:41;13.88;;;6.68;;
70814;SDS011;58428;49.478;10.986;2022-11-15T08:11:07;11.50;;;6.88;;
70814;SDS011;58428;49.478;10.986;2022-11-15T08:13:37;13.68;;;7.13;;
70814;SDS011;58428;49.478;10.986;2022-11-15T08:16:02;12.60;;;7.07;;
70814;SDS011;58428;49.478;10.986;2022-11-15T08:18:31;12.13;;;6.90;;
70814;SDS011;58428;49.478;10.986;2022-11-15T08:20:59;12.38;;;6.65;;
70814;SDS011;58428;49.478;10.986;2022-11-15T08:23:27;12.27;;;6.82;;
70814;SDS011;58428;49.478;10.986;2022-11-15T08:25:58;11.32;;;6.63;;
70814;SDS011;58428;49.478;10.986;2022-11-15T08:28:28;11.60;;;6.72;;
70814;SDS011;58428;49.478;10.986;2022-11-15T08:30:54;13.02;;;7.15;;
70814;SDS011;58428;49.478;10.986;2022-11-15T08:33:19;14.23;;;6.72;;
70814;SDS011;58428;49.478;10.986;2022-11-15T08:35:45;13.00;;;7.75;;
70814;SDS011;58428;49.478;10.986;2022-11-15T08:38:10;12.00;;;6.60;;
70814;SDS011;58428;49.478;10.986;2022-11-15T08:40:36;12.70;;;6.82;;
70814;SDS011;58428;49.478;10.986;2022-11-15T08:43:03;11.98;;;7.25;;
70814;SDS011;58428;49.478;10.986;2022-11-15T08:45:30;11.93;;;6.65;;
70814;SDS011;58428;49.478;10.986;2022-11-15T08:48:00;11.52;;;6.32;;
70814;SDS011;58428;49.478;10.986;2022-11-15T08:50:27;10.20;;;6.00;;
70814;SDS011;58428;49.478;10.986;2022-11-15T08:52:52;12.93;;;6.57;;
70814;SDS011;58428;49.478;10.986;2022-11-15T08:55:18;12.25;;;6.50;;
70814;SDS011;58428;49.478;10.986;2022-11-15T08:57:46;12.48;;;6.32;;
70814;SDS011;58428;49.478;10.986;2022-11-15T09:00:14;12.60;;;6.28;;
70814;SDS011;58428;49.478;10.986;2022-11-15T09:02:40;11.05;;;6.35;;
70814;SDS011;58428;49.478;10.986;2022-11-15T09:05:07;12.30;;;6.75;;
70814;SDS011;58428;49.478;10.986;2022-11-15T09:07:34;12.73;;;5.55;;
70814;SDS011;58428;49.478;10.986;2022-11-15T09:10:01;11.52;;;6.28;;
70814;SDS011;58428;49.478;10.986;2022-11-15T09:12:26;11.85;;;6.25;;
70814;SDS011;58428;49.478;10.986;2022-11-15T09:14:55;12.75;;;6.15;;
70814;SDS011;58428;49.478;10.986;2022-11-15T09:17:21;11.20;;;5.80;;
70814;SDS011;58428;49.478;10.986;2022-11-15T09:19:47;9.98;;;6.15;;
70814;SDS011;58428;49.478;10.986;2022-11-15T09:22:14;11.15;;;5.80;;
70814;SDS011;58428;49.478;10.986;2022-11-15T09:24:42;10.02;;;5.25;;
70814;SDS011;58428;49.478;10.986;2022-11-15T09:27:07;11.20;;;6.18;;
70814;SDS011;58428;49.478;10.986;2022-11-15T09:29:33;10.02;;;5.93;;
70814;SDS011;58428;49.478;10.986;2022-11-15T09:31:58;8.27;;;5.20;;
70814;SDS011;58428;49.478;10.986;2022-11-15T09:34:25;10.18;;;5.40;;
70814;SDS011;58428;49.478;10.986;2022-11-15T09:36:51;8.80;;;5.60;;
70814;SDS011;58428;49.478;10.986;2022-11-15T09:39:16;9.68;;;6.38;;
70814;SDS011;58428;49.478;10.986;2022-11-15T09:50:41;13.95;;;6.13;;
70814;SDS011;58428;49.478;10.986;2022-11-15T09:53:13;11.38;;;5.40;;
70814;SDS011;58428;49.478;10.986;2022-11-15T10:01:44;10.20;;;5.40;;
70814;SDS011;58428;49.478;10.986;2022-11-15T10:04:14;9.02;;;4.80;;
70814;SDS011;58428;49.478;10.986;2022-11-15T10:06:46;10.32;;;4.80;;
70814;SDS011;58428;49.478;10.986;2022-11-15T10:09:23;9.70;;;5.40;;
70814;SDS011;58428;49.478;10.986;2022-11-15T10:11:55;9.40;;;5.10;;
70814;SDS011;58428;49.478;10.986;2022-11-15T10:14:23;8.18;;;5.30;;
70814;SDS011;58428;49.478;10.986;2022-11-15T10:20:11;9.13;;;4.82;;
70814;SDS011;58428;49.478;10.986;2022-11-15T10:22:45;8.45;;;4.50;;
70814;SDS011;58428;49.478;10.986;2022-11-15T10:30:57;9.40;;;4.95;;
70814;SDS011;58428;49.478;10.986;2022-11-15T10:38:58;7.05;;;4.32;;
70814;SDS011;58428;49.478;10.986;2022-11-15T10:44:30;7.68;;;4.45;;
70814;SDS011;58428;49.478;10.986;2022-11-15T10:49:56;7.97;;;3.95;;
70814;SDS011;58428;49.478;10.986;2022-11-15T10:52:45;7.25;;;3.65;;
70814;SDS011;58428;49.478;10.986;2022-11-15T10:57:47;6.53;;;3.75;;
70814;SDS011;58428;49.478;10.986;2022-11-15T11:10:26;9.40;;;3.63;;
70814;SDS011;58428;49.478;10.986;2022-11-15T11:12:52;6.72;;;3.45;;
70814;SDS011;58428;49.478;10.986;2022-11-15T11:15:18;8.10;;;3.97;;
70814;SDS011;58428;49.478;10.986;2022-11-15T11:31:51;10.68;;;4.43;;
70814;SDS011;58428;49.478;10.986;2022-11-15T11:51:09;6.93;;;3.95;;
70814;SDS011;58428;49.478;10.986;2022-11-15T11:53:43;6.82;;;4.03;;
70814;SDS011;58428;49.478;10.986;2022-11-15T11:59:05;5.68;;;3.00;;
70814;SDS011;58428;49.478;10.986;2022-11-15T12:01:41;6.53;;;3.25;;
70814;SDS011;58428;49.478;10.986;2022-11-15T12:04:10;6.85;;;3.60;;
70814;SDS011;58428;49.478;10.986;2022-11-15T12:07:40;6.70;;;3.30;;
70814;SDS011;58428;49.478;10.986;2022-11-15T12:17:40;4.55;;;2.33;;
70814;SDS011;58428;49.478;10.986;2022-11-15T12:20:30;6.03;;;2.85;;
70814;SDS011;58428;49.478;10.986;2022-11-15T12:23:13;5.65;;;2.90;;
70814;SDS011;58428;49.478;10.986;2022-11-15T12:25:48;5.57;;;2.80;;
70814;SDS011;58428;49.478;10.986;2022-11-15T12:28:25;5.90;;;3.15;;
70814;SDS011;58428;49.478;10.986;2022-11-15T12:31:13;4.80;;;2.50;;
70814;SDS011;58428;49.478;10.986;2022-11-15T12:33:46;6.00;;;2.60;;
70814;SDS011;58428;49.478;10.986;2022-11-15T12:38:51;5.57;;;2.72;;
70814;SDS011;58428;49.478;10.986;2022-11-15T12:41:18;6.25;;;2.80;;
70814;SDS011;58428;49.478;10.986;2022-11-15T12:43:47;5.72;;;2.72;;
70814;SDS011;58428;49.478;10.986;2022-11-15T12:49:09;5.00;;;2.60;;
70814;SDS011;58428;49.478;10.986;2022-11-15T12:59:51;6.47;;;2.47;;
70814;SDS011;58428;49.478;10.986;2022-11-15T13:02:35;5.20;;;2.60;;
70814;SDS011;58428;49.478;10.986;2022-11-15T13:30:16;9.75;;;3.38;;
70814;SDS011;58428;49.478;10.986;2022-11-15T13:32:45;8.13;;;3.60;;
70814;SDS011;58428;49.478;10.986;2022-11-15T13:35:25;10.02;;;3.90;;
70814;SDS011;58428;49.478;10.986;2022-11-15T13:37:53;7.63;;;3.58;;
70814;SDS011;58428;49.478;10.986;2022-11-15T13:40:22;9.48;;;4.00;;
70814;SDS011;58428;49.478;10.986;2022-11-15T13:42:55;7.28;;;3.55;;
70814;SDS011;58428;49.478;10.986;2022-11-15T13:45:22;8.60;;;3.30;;
70814;SDS011;58428;49.478;10.986;2022-11-15T13:50:32;6.47;;;3.25;;
70814;SDS011;58428;49.478;10.986;2022-11-15T13:53:02;7.53;;;3.88;;
70814;SDS011;58428;49.478;10.986;2022-11-15T13:55:30;6.47;;;3.08;;
70814;SDS011;58428;49.478;10.986;2022-11-15T13:58:00;7.47;;;2.95;;
70814;SDS011;58428;49.478;10.986;2022-11-15T14:00:41;7.35;;;3.13;;
70814;SDS011;58428;49.478;10.986;2022-11-15T14:08:32;7.90;;;2.95;;
70814;SDS011;58428;49.478;10.986;2022-11-15T14:16:37;6.07;;;2.90;;
70814;SDS011;58428;49.478;10.986;2022-11-15T14:19:06;7.68;;;3.00;;
70814;SDS011;58428;49.478;10.986;2022-11-15T14:21:35;6.10;;;2.92;;
70814;SDS011;58428;49.478;10.986;2022-11-15T14:26:44;7.05;;;2.88;;
70814;SDS011;58428;49.478;10.986;2022-11-15T14:29:25;5.15;;;2.80;;
70814;SDS011;58428;49.478;10.986;2022-11-15T14:31:51;5.38;;;2.47;;
70814;SDS011;58428;49.478;10.986;2022-11-15T14:34:18;5.40;;;2.90;;
70814;SDS011;58428;49.478;10.986;2022-11-15T14:36:46;7.13;;;3.15;;
70814;SDS011;58428;49.478;10.986;2022-11-15T14:39:12;7.18;;;3.25;;
70814;SDS011;58428;49.478;10.986;2022-11-15T14:44:04;5.97;;;3.50;;
70814;SDS011;58428;49.478;10.986;2022-11-15T14:46:32;7.15;;;3.13;;
70814;SDS011;58428;49.478;10.986;2022-11-15T14:48:59;7.85;;;3.80;;
70814;SDS011;58428;49.478;10.986;2022-11-15T14:51:25;6.95;;;3.25;;
70814;SDS011;58428;49.478;10.986;2022-11-15T14:53:51;8.65;;;4.13;;
70814;SDS011;58428;49.478;10.986;2022-11-15T14:56:17;7.60;;;4.10;;
70814;SDS011;58428;49.478;10.986;2022-11-15T14:58:42;8.40;;;4.10;;
70814;SDS011;58428;49.478;10.986;2022-11-15T15:01:20;9.65;;;4.10;;
70814;SDS011;58428;49.478;10.986;2022-11-15T15:03:49;7.93;;;3.80;;
70814;SDS011;58428;49.478;10.986;2022-11-15T15:06:17;8.40;;;3.90;;
70814;SDS011;58428;49.478;10.986;2022-11-15T15:08:42;8.43;;;4.28;;
70814;SDS011;58428;49.478;10.986;2022-11-15T15:11:16;9.02;;;4.80;;
70814;SDS011;58428;49.478;10.986;2022-11-15T15:13:46;8.30;;;4.50;;
70814;SDS011;58428;49.478;10.986;2022-11-15T15:16:12;7.85;;;4.20;;
70814;SDS011;58428;49.478;10.986;2022-11-15T15:18:38;7.80;;;4.45;;
70814;SDS011;58428;49.478;10.986;2022-11-15T15:21:04;8.00;;;4.10;;
70814;SDS011;58428;49.478;10.986;2022-11-15T15:23:50;7.47;;;3.97;;
70814;SDS011;58428;49.478;10.986;2022-11-15T15:26:15;7.60;;;4.10;;
70814;SDS011;58428;49.478;10.986;2022-11-15T15:28:41;6.88;;;3.80;;
70814;SDS011;58428;49.478;10.986;2022-11-15T15:31:07;6.97;;;4.00;;
70814;SDS011;58428;49.478;10.986;2022-11-15T15:33:33;8.75;;;4.28;;
70814;SDS011;58428;49.478;10.986;2022-11-15T15:35:59;8.50;;;4.40;;
70814;SDS011;58428;49.478;10.986;2022-11-15T15:38:26;7.38;;;4.00;;
70814;SDS011;58428;49.478;10.986;2022-11-15T15:40:51;6.93;;;3.80;;
70814;SDS011;58428;49.478;10.986;2022-11-15T15:43:20;7.47;;;3.72;;
70814;SDS011;58428;49.478;10.986;2022-11-15T15:45:45;7.38;;;3.97;;
70814;SDS011;58428;49.478;10.986;2022-11-15T15:48:14;10.50;;;4.47;;
70814;SDS011;58428;49.478;10.986;2022-11-15T15:50:41;11.82;;;4.78;;
70814;SDS011;58428;49.478;10.986;2022-11-15T15:53:11;8.50;;;4.10;;
70814;SDS011;58428;49.478;10.986;2022-11-15T15:55:37;10.32;;;4.18;;
70814;SDS011;58428;49.478;10.986;2022-11-15T15:58:04;9.65;;;4.93;;
70814;SDS011;58428;49.478;10.986;2022-11-15T16:00:30;10.00;;;5.00;;
70814;SDS011;58428;49.478;10.986;2022-11-15T16:02:57;10.23;;;4.82;;
70814;SDS011;58428;49.478;10.986;2022-11-15T16:05:23;13.95;;;5.50;;
70814;SDS011;58428;49.478;10.986;2022-11-15T16:07:49;13.13;;;5.85;;
70814;SDS011;58428;49.478;10.986;2022-11-15T16:10:28;10.25;;;5.32;;
70814;SDS011;58428;49.478;10.986;2022-11-15T16:12:56;9.75;;;4.95;;
70814;SDS011;58428;49.478;10.986;2022-11-15T16:15:23;10.25;;;4.78;;
70814;SDS011;58428;49.478;10.986;2022-11-15T16:17:54;9.48;;;4.70;;
70814;SDS011;58428;49.478;10.986;2022-11-15T16:20:48;13.88;;;4.93;;
70814;SDS011;58428;49.478;10.986;2022-11-15T16:23:17;10.98;;;6.05;;
70814;SDS011;58428;49.478;10.986;2022-11-15T16:30:48;9.73;;;4.85;;
70814;SDS011;58428;49.478;10.986;2022-11-15T16:33:15;8.57;;;4.38;;
70814;SDS011;58428;49.478;10.986;2022-11-15T16:35:44;11.07;;;5.88;;
70814;SDS011;58428;49.478;10.986;2022-11-15T16:38:13;12.13;;;5.80;;
70814;SDS011;58428;49.478;10.986;2022-11-15T16:40:40;10.25;;;5.68;;
70814;SDS011;58428;49.478;10.986;2022-11-15T16:43:08;10.88;;;5.57;;
70814;SDS011;58428;49.478;10.986;2022-11-15T16:45:35;12.88;;;6.57;;
70814;SDS011;58428;49.478;10.986;2022-11-15T16:48:00;14.55;;;6.90;;
70814;SDS011;58428;49.478;10.986;2022-11-15T16:50:27;15.20;;;7.20;;
70814;SDS011;58428;49.478;10.986;2022-11-15T16:52:55;15.10;;;7.90;;
70814;SDS011;58428;49.478;10.986;2022-11-15T16:55:22;11.65;;;7.00;;
70814;SDS011;58428;49.478;10.986;2022-11-15T16:57:51;12.10;;;6.78;;
70814;SDS011;58428;49.478;10.986;2022-11-15T17:00:18;11.65;;;6.70;;
70814;SDS011;58428;49.478;10.986;2022-11-15T17:02:44;12.18;;;5.80;;
70814;SDS011;58428;49.478;10.986;2022-11-15T17:05:12;14.80;;;6.65;;
70814;SDS011;58428;49.478;10.986;2022-11-15T17:07:41;14.38;;;6.57;;
70814;SDS011;58428;49.478;10.986;2022-11-15T17:10:09;13.23;;;6.85;;
70814;SDS011;58428;49.478;10.986;2022-11-15T17:12:36;15.18;;;8.13;;
70814;SDS011;58428;49.478;10.986;2022-11-15T17:15:03;15.60;;;7.78;;
70814;SDS011;58428;49.478;10.986;2022-11-15T17:17:30;15.32;;;6.88;;
70814;SDS011;58428;49.478;10.986;2022-11-15T17:19:56;13.73;;;7.38;;
70814;SDS011;58428;49.478;10.986;2022-11-15T17:22:22;15.25;;;7.22;;
70814;SDS011;58428;49.478;10.986;2022-11-15T17:24:47;12.82;;;7.22;;
70814;SDS011;58428;49.478;10.986;2022-11-15T17:27:13;12.55;;;6.80;;
70814;SDS011;58428;49.478;10.986;2022-11-15T17:29:39;13.23;;;7.15;;
70814;SDS011;58428;49.478;10.986;2022-11-15T17:32:06;14.00;;;6.97;;
70814;SDS011;58428;49.478;10.986;2022-11-15T17:34:31;14.63;;;6.80;;
70814;SDS011;58428;49.478;10.986;2022-11-15T17:36:57;13.07;;;6.40;;
70814;SDS011;58428;49.478;10.986;2022-11-15T17:39:23;13.68;;;7.18;;
70814;SDS011;58428;49.478;10.986;2022-11-15T17:41:50;12.85;;;7.38;;
70814;SDS011;58428;49.478;10.986;2022-11-15T17:44:17;13.15;;;7.45;;
70814;SDS011;58428;49.478;10.986;2022-11-15T17:46:43;12.50;;;6.22;;
70814;SDS011;58428;49.478;10.986;2022-11-15T17:49:09;13.43;;;6.78;;
70814;SDS011;58428;49.478;10.986;2022-11-15T17:51:36;14.43;;;7.60;;
70814;SDS011;58428;49.478;10.986;2022-11-15T17:54:02;13.48;;;6.28;;
70814;SDS011;58428;49.478;10.986;2022-11-15T17:56:27;17.27;;;7.18;;